sensor_id;sensor_type;location;lat;lon;timestamp;temperature;humidity
25440;DHT22;13365;52.208;5.488;2023-01-31T00:00:20;7.30;99.90
25440;DHT22;13365;52.208;5.488;2023-01-31T00:02:45;7.40;99.90
25440;DHT22;13365;52.208;5.488;2023-01-31T00:05:11;7.40;99.90
25440;DHT22;13365;52.208;5.488;2023-01-31T00:07:36;7.10;99.90
25440;DHT22;13365;52.208;5.488;2023-01-31T00:10:02;7.00;99.90
25440;DHT22;13365;52.208;5.488;2023-01-31T00:12:27;6.90;99.90
25440;DHT22;13365;52.208;5.488;2023-01-31T00:14:53;6.90;99.90
25440;DHT22;13365;52.208;5.488;2023-01-31T00:17:18;7.10;99.90
25440;DHT22;13365;52.208;5.488;2023-01-31T00:19:44;7.30;99.90
25440;DHT22;13365;52.208;5.488;2023-01-31T00:22:09;7.30;99.90
25440;DHT22;13365;52.208;5.488;2023-01-31T00:24:35;7.40;99.90
25440;DHT22;13365;52.208;5.488;2023-01-31T00:27:00;7.30;99.90
25440;DHT22;13365;52.208;5.488;2023-01-31T00:29:26;7.40;99.90
25440;DHT22;13365;52.208;5.488;2023-01-31T00:31:51;7.40;99.90
25440;DHT22;13365;52.208;5.488;2023-01-31T00:34:17;7.50;99.90
25440;DHT22;13365;52.208;5.488;2023-01-31T00:36:43;7.50;99.90
25440;DHT22;13365;52.208;5.488;2023-01-31T00:39:09;7.50;99.90
25440;DHT22;13365;52.208;5.488;2023-01-31T00:41:37;7.80;99.90
25440;DHT22;13365;52.208;5.488;2023-01-31T00:44:03;8.20;99.90
25440;DHT22;13365;52.208;5.488;2023-01-31T00:46:29;8.50;99.20
25440;DHT22;13365;52.208;5.488;2023-01-31T00:48:55;8.70;98.40
25440;DHT22;13365;52.208;5.488;2023-01-31T00:51:22;8.70;97.90
25440;DHT22;13365;52.208;5.488;2023-01-31T00:53:48;8.90;97.70
25440;DHT22;13365;52.208;5.488;2023-01-31T00:56:17;8.80;97.20
25440;DHT22;13365;52.208;5.488;2023-01-31T00:58:43;8.90;97.20
25440;DHT22;13365;52.208;5.488;2023-01-31T01:03:40;8.90;96.70
25440;DHT22;13365;52.208;5.488;2023-01-31T01:06:07;9.00;96.60
25440;DHT22;13365;52.208;5.488;2023-01-31T01:08:33;9.00;96.60
25440;DHT22;13365;52.208;5.488;2023-01-31T01:11:11;9.10;96.70
25440;DHT22;13365;52.208;5.488;2023-01-31T01:13:37;9.20;96.80
25440;DHT22;13365;52.208;5.488;2023-01-31T01:16:08;9.20;96.80
25440;DHT22;13365;52.208;5.488;2023-01-31T01:18:34;9.40;96.90
25440;DHT22;13365;52.208;5.488;2023-01-31T01:21:13;9.20;96.30
25440;DHT22;13365;52.208;5.488;2023-01-31T01:23:40;9.10;96.40
25440;DHT22;13365;52.208;5.488;2023-01-31T01:26:15;9.10;96.20
25440;DHT22;13365;52.208;5.488;2023-01-31T01:28:41;9.20;96.00
25440;DHT22;13365;52.208;5.488;2023-01-31T01:31:09;9.10;95.80
25440;DHT22;13365;52.208;5.488;2023-01-31T01:33:36;9.00;95.80
25440;DHT22;13365;52.208;5.488;2023-01-31T01:36:03;8.90;95.90
25440;DHT22;13365;52.208;5.488;2023-01-31T01:38:29;8.70;96.00
25440;DHT22;13365;52.208;5.488;2023-01-31T01:40:55;8.80;96.10
25440;DHT22;13365;52.208;5.488;2023-01-31T01:43:23;8.70;96.00
25440;DHT22;13365;52.208;5.488;2023-01-31T01:45:49;8.70;96.00
25440;DHT22;13365;52.208;5.488;2023-01-31T01:48:17;8.50;96.00
25440;DHT22;13365;52.208;5.488;2023-01-31T01:50:47;8.60;96.20
25440;DHT22;13365;52.208;5.488;2023-01-31T01:53:21;8.50;96.30
25440;DHT22;13365;52.208;5.488;2023-01-31T01:55:50;8.50;96.40
25440;DHT22;13365;52.208;5.488;2023-01-31T01:58:27;8.50;96.60
25440;DHT22;13365;52.208;5.488;2023-01-31T02:00:54;8.40;96.80
25440;DHT22;13365;52.208;5.488;2023-01-31T02:03:20;8.60;97.30
25440;DHT22;13365;52.208;5.488;2023-01-31T02:05:52;8.50;97.40
25440;DHT22;13365;52.208;5.488;2023-01-31T02:08:21;8.60;97.60
25440;DHT22;13365;52.208;5.488;2023-01-31T02:11:03;8.70;97.70
25440;DHT22;13365;52.208;5.488;2023-01-31T02:13:30;8.50;97.80
25440;DHT22;13365;52.208;5.488;2023-01-31T02:15:56;8.70;98.30
25440;DHT22;13365;52.208;5.488;2023-01-31T02:18:23;8.90;98.20
25440;DHT22;13365;52.208;5.488;2023-01-31T02:24:01;8.80;98.50
25440;DHT22;13365;52.208;5.488;2023-01-31T02:27:11;8.80;98.70
25440;DHT22;13365;52.208;5.488;2023-01-31T02:30:04;9.00;98.90
25440;DHT22;13365;52.208;5.488;2023-01-31T02:37:47;9.30;98.70
25440;DHT22;13365;52.208;5.488;2023-01-31T02:46:01;9.50;98.50
25440;DHT22;13365;52.208;5.488;2023-01-31T02:48:51;9.50;98.50
25440;DHT22;13365;52.208;5.488;2023-01-31T02:51:34;9.60;98.70
25440;DHT22;13365;52.208;5.488;2023-01-31T02:54:07;9.50;98.80
25440;DHT22;13365;52.208;5.488;2023-01-31T02:56:36;9.70;98.70
25440;DHT22;13365;52.208;5.488;2023-01-31T02:59:21;9.70;98.80
25440;DHT22;13365;52.208;5.488;2023-01-31T03:01:58;9.70;98.80
25440;DHT22;13365;52.208;5.488;2023-01-31T03:04:30;9.80;99.00
25440;DHT22;13365;52.208;5.488;2023-01-31T03:07:01;9.80;98.90
25440;DHT22;13365;52.208;5.488;2023-01-31T03:12:30;9.90;98.90
25440;DHT22;13365;52.208;5.488;2023-01-31T03:20:29;9.90;98.70
25440;DHT22;13365;52.208;5.488;2023-01-31T03:23:07;10.00;98.80
25440;DHT22;13365;52.208;5.488;2023-01-31T03:25:36;10.10;98.70
25440;DHT22;13365;52.208;5.488;2023-01-31T03:28:05;10.10;98.60
25440;DHT22;13365;52.208;5.488;2023-01-31T03:30:51;10.00;98.70
25440;DHT22;13365;52.208;5.488;2023-01-31T03:33:29;9.80;99.10
25440;DHT22;13365;52.208;5.488;2023-01-31T03:44:41;10.10;98.60
25440;DHT22;13365;52.208;5.488;2023-01-31T03:47:25;10.10;98.50
25440;DHT22;13365;52.208;5.488;2023-01-31T03:49:54;10.30;98.30
25440;DHT22;13365;52.208;5.488;2023-01-31T03:52:25;10.20;98.20
25440;DHT22;13365;52.208;5.488;2023-01-31T03:55:00;10.30;98.20
25440;DHT22;13365;52.208;5.488;2023-01-31T03:57:37;10.40;98.20
25440;DHT22;13365;52.208;5.488;2023-01-31T04:00:09;10.40;98.00
25440;DHT22;13365;52.208;5.488;2023-01-31T04:02:38;10.40;98.30
25440;DHT22;13365;52.208;5.488;2023-01-31T04:05:08;10.40;98.20
25440;DHT22;13365;52.208;5.488;2023-01-31T04:07:35;10.30;98.40
25440;DHT22;13365;52.208;5.488;2023-01-31T04:10:04;10.40;98.60
25440;DHT22;13365;52.208;5.488;2023-01-31T04:12:35;10.40;98.90
25440;DHT22;13365;52.208;5.488;2023-01-31T04:15:00;10.40;99.00
25440;DHT22;13365;52.208;5.488;2023-01-31T04:17:26;10.30;99.10
25440;DHT22;13365;52.208;5.488;2023-01-31T04:19:51;10.30;99.20
25440;DHT22;13365;52.208;5.488;2023-01-31T04:22:17;10.40;99.20
25440;DHT22;13365;52.208;5.488;2023-01-31T04:24:42;10.30;98.80
25440;DHT22;13365;52.208;5.488;2023-01-31T04:27:08;10.40;98.80
25440;DHT22;13365;52.208;5.488;2023-01-31T04:29:33;10.50;98.70
25440;DHT22;13365;52.208;5.488;2023-01-31T04:31:59;10.50;98.50
25440;DHT22;13365;52.208;5.488;2023-01-31T04:34:24;10.60;98.60
25440;DHT22;13365;52.208;5.488;2023-01-31T04:36:50;10.50;98.80
25440;DHT22;13365;52.208;5.488;2023-01-31T04:39:15;10.50;98.70
25440;DHT22;13365;52.208;5.488;2023-01-31T04:41:41;10.50;98.90
25440;DHT22;13365;52.208;5.488;2023-01-31T04:44:06;10.40;99.20
25440;DHT22;13365;52.208;5.488;2023-01-31T04:46:32;10.50;99.30
25440;DHT22;13365;52.208;5.488;2023-01-31T04:48:57;10.50;99.30
25440;DHT22;13365;52.208;5.488;2023-01-31T04:51:23;10.40;99.60
25440;DHT22;13365;52.208;5.488;2023-01-31T04:53:49;10.60;99.80
25440;DHT22;13365;52.208;5.488;2023-01-31T04:56:14;10.60;99.60
25440;DHT22;13365;52.208;5.488;2023-01-31T04:58:40;10.50;99.60
25440;DHT22;13365;52.208;5.488;2023-01-31T05:01:06;10.70;99.80
25440;DHT22;13365;52.208;5.488;2023-01-31T05:03:32;10.60;99.70
25440;DHT22;13365;52.208;5.488;2023-01-31T05:05:57;10.80;99.50
25440;DHT22;13365;52.208;5.488;2023-01-31T05:08:23;10.90;99.10
25440;DHT22;13365;52.208;5.488;2023-01-31T05:10:48;10.90;99.00
25440;DHT22;13365;52.208;5.488;2023-01-31T05:13:14;10.80;98.90
25440;DHT22;13365;52.208;5.488;2023-01-31T05:15:39;10.80;98.90
25440;DHT22;13365;52.208;5.488;2023-01-31T05:18:06;10.80;99.00
25440;DHT22;13365;52.208;5.488;2023-01-31T05:20:37;11.00;99.00
25440;DHT22;13365;52.208;5.488;2023-01-31T05:23:05;10.80;99.10
25440;DHT22;13365;52.208;5.488;2023-01-31T05:25:31;10.80;99.20
25440;DHT22;13365;52.208;5.488;2023-01-31T05:27:57;11.00;99.10
25440;DHT22;13365;52.208;5.488;2023-01-31T05:30:23;11.00;98.80
25440;DHT22;13365;52.208;5.488;2023-01-31T05:32:49;11.00;99.10
25440;DHT22;13365;52.208;5.488;2023-01-31T05:35:15;11.00;98.90
25440;DHT22;13365;52.208;5.488;2023-01-31T05:37:41;10.90;99.00
25440;DHT22;13365;52.208;5.488;2023-01-31T05:40:12;10.80;99.60
25440;DHT22;13365;52.208;5.488;2023-01-31T05:42:38;10.80;99.50
25440;DHT22;13365;52.208;5.488;2023-01-31T05:45:05;10.80;99.60
25440;DHT22;13365;52.208;5.488;2023-01-31T05:47:30;10.60;99.80
25440;DHT22;13365;52.208;5.488;2023-01-31T05:49:57;10.40;99.90
25440;DHT22;13365;52.208;5.488;2023-01-31T05:52:23;10.40;99.90
25440;DHT22;13365;52.208;5.488;2023-01-31T05:54:48;10.60;99.90
25440;DHT22;13365;52.208;5.488;2023-01-31T05:57:15;10.80;99.90
25440;DHT22;13365;52.208;5.488;2023-01-31T05:59:41;10.80;99.90
25440;DHT22;13365;52.208;5.488;2023-01-31T06:02:07;11.00;99.90
25440;DHT22;13365;52.208;5.488;2023-01-31T06:04:41;10.90;99.90
25440;DHT22;13365;52.208;5.488;2023-01-31T06:07:07;10.70;99.90
25440;DHT22;13365;52.208;5.488;2023-01-31T06:09:32;10.70;99.90
25440;DHT22;13365;52.208;5.488;2023-01-31T06:11:58;10.90;99.90
25440;DHT22;13365;52.208;5.488;2023-01-31T06:14:23;10.80;99.90
25440;DHT22;13365;52.208;5.488;2023-01-31T06:16:49;10.80;99.90
25440;DHT22;13365;52.208;5.488;2023-01-31T06:19:14;10.70;99.90
25440;DHT22;13365;52.208;5.488;2023-01-31T06:21:40;10.90;99.90
25440;DHT22;13365;52.208;5.488;2023-01-31T06:24:06;10.80;99.90
25440;DHT22;13365;52.208;5.488;2023-01-31T06:26:31;10.90;99.90
25440;DHT22;13365;52.208;5.488;2023-01-31T06:28:57;10.70;99.90
25440;DHT22;13365;52.208;5.488;2023-01-31T06:31:23;10.70;99.90
25440;DHT22;13365;52.208;5.488;2023-01-31T06:33:49;10.40;99.90
25440;DHT22;13365;52.208;5.488;2023-01-31T06:36:15;10.40;99.90
25440;DHT22;13365;52.208;5.488;2023-01-31T06:38:41;10.40;99.90
25440;DHT22;13365;52.208;5.488;2023-01-31T06:41:07;10.40;99.90
25440;DHT22;13365;52.208;5.488;2023-01-31T06:43:32;10.30;99.90
25440;DHT22;13365;52.208;5.488;2023-01-31T06:45:58;10.10;99.90
25440;DHT22;13365;52.208;5.488;2023-01-31T06:48:23;10.00;99.90
25440;DHT22;13365;52.208;5.488;2023-01-31T06:50:49;9.80;99.90
25440;DHT22;13365;52.208;5.488;2023-01-31T06:53:14;9.60;99.90
25440;DHT22;13365;52.208;5.488;2023-01-31T06:55:40;9.60;99.90
25440;DHT22;13365;52.208;5.488;2023-01-31T06:58:05;9.80;99.90
25440;DHT22;13365;52.208;5.488;2023-01-31T07:00:31;9.80;99.90
25440;DHT22;13365;52.208;5.488;2023-01-31T07:02:57;9.70;99.90
25440;DHT22;13365;52.208;5.488;2023-01-31T07:05:22;9.60;99.90
25440;DHT22;13365;52.208;5.488;2023-01-31T07:07:48;9.60;99.90
25440;DHT22;13365;52.208;5.488;2023-01-31T07:10:14;9.50;99.90
25440;DHT22;13365;52.208;5.488;2023-01-31T07:12:40;9.40;99.90
25440;DHT22;13365;52.208;5.488;2023-01-31T07:15:06;9.60;99.90
25440;DHT22;13365;52.208;5.488;2023-01-31T07:17:32;9.80;99.90
25440;DHT22;13365;52.208;5.488;2023-01-31T07:19:58;9.80;99.90
25440;DHT22;13365;52.208;5.488;2023-01-31T07:22:24;9.70;99.90
25440;DHT22;13365;52.208;5.488;2023-01-31T07:24:49;9.70;99.90
25440;DHT22;13365;52.208;5.488;2023-01-31T07:27:15;9.50;99.90
25440;DHT22;13365;52.208;5.488;2023-01-31T07:29:41;9.30;99.90
25440;DHT22;13365;52.208;5.488;2023-01-31T07:32:08;9.30;99.90
25440;DHT22;13365;52.208;5.488;2023-01-31T07:34:33;9.20;99.90
25440;DHT22;13365;52.208;5.488;2023-01-31T07:36:59;9.20;99.90
25440;DHT22;13365;52.208;5.488;2023-01-31T07:39:25;9.20;99.90
25440;DHT22;13365;52.208;5.488;2023-01-31T07:41:51;9.20;99.90
25440;DHT22;13365;52.208;5.488;2023-01-31T07:44:16;9.00;99.90
25440;DHT22;13365;52.208;5.488;2023-01-31T07:46:42;8.90;99.90
25440;DHT22;13365;52.208;5.488;2023-01-31T07:49:11;9.00;99.90
25440;DHT22;13365;52.208;5.488;2023-01-31T07:51:37;8.70;99.90
25440;DHT22;13365;52.208;5.488;2023-01-31T07:54:04;8.90;99.90
25440;DHT22;13365;52.208;5.488;2023-01-31T07:56:29;8.90;99.90
25440;DHT22;13365;52.208;5.488;2023-01-31T07:58:55;9.10;99.90
25440;DHT22;13365;52.208;5.488;2023-01-31T08:01:23;9.20;99.90
25440;DHT22;13365;52.208;5.488;2023-01-31T08:04:10;9.30;99.90
25440;DHT22;13365;52.208;5.488;2023-01-31T08:06:38;9.50;99.90
25440;DHT22;13365;52.208;5.488;2023-01-31T08:09:04;9.50;99.90
25440;DHT22;13365;52.208;5.488;2023-01-31T08:11:30;9.70;99.90
25440;DHT22;13365;52.208;5.488;2023-01-31T08:13:56;9.50;99.90
25440;DHT22;13365;52.208;5.488;2023-01-31T08:16:21;9.60;99.90
25440;DHT22;13365;52.208;5.488;2023-01-31T08:18:47;9.80;99.90
25440;DHT22;13365;52.208;5.488;2023-01-31T08:21:14;9.80;99.90
25440;DHT22;13365;52.208;5.488;2023-01-31T08:23:40;10.00;99.90
25440;DHT22;13365;52.208;5.488;2023-01-31T08:26:14;10.00;99.90
25440;DHT22;13365;52.208;5.488;2023-01-31T08:28:40;10.20;99.90
25440;DHT22;13365;52.208;5.488;2023-01-31T08:31:09;10.20;99.90
25440;DHT22;13365;52.208;5.488;2023-01-31T08:33:36;10.10;99.90
25440;DHT22;13365;52.208;5.488;2023-01-31T08:36:20;10.40;99.90
25440;DHT22;13365;52.208;5.488;2023-01-31T08:38:46;10.40;99.90
25440;DHT22;13365;52.208;5.488;2023-01-31T08:41:12;10.30;99.90
25440;DHT22;13365;52.208;5.488;2023-01-31T08:43:38;10.50;99.90
25440;DHT22;13365;52.208;5.488;2023-01-31T08:46:04;10.50;99.90
25440;DHT22;13365;52.208;5.488;2023-01-31T08:48:35;10.70;99.90
25440;DHT22;13365;52.208;5.488;2023-01-31T08:51:05;10.60;99.90
25440;DHT22;13365;52.208;5.488;2023-01-31T08:53:31;10.70;99.90
25440;DHT22;13365;52.208;5.488;2023-01-31T08:55:58;10.60;99.90
25440;DHT22;13365;52.208;5.488;2023-01-31T08:58:24;10.20;99.90
25440;DHT22;13365;52.208;5.488;2023-01-31T09:00:49;10.10;99.90
25440;DHT22;13365;52.208;5.488;2023-01-31T09:03:15;10.30;99.90
25440;DHT22;13365;52.208;5.488;2023-01-31T09:05:43;10.40;99.90
25440;DHT22;13365;52.208;5.488;2023-01-31T09:08:10;10.30;99.90
25440;DHT22;13365;52.208;5.488;2023-01-31T09:10:36;10.10;99.90
25440;DHT22;13365;52.208;5.488;2023-01-31T09:13:01;10.00;99.90
25440;DHT22;13365;52.208;5.488;2023-01-31T09:15:27;10.10;99.90
25440;DHT22;13365;52.208;5.488;2023-01-31T09:17:52;10.30;99.90
25440;DHT22;13365;52.208;5.488;2023-01-31T09:20:18;10.40;99.90
25440;DHT22;13365;52.208;5.488;2023-01-31T09:22:44;10.40;99.90
25440;DHT22;13365;52.208;5.488;2023-01-31T09:25:10;10.40;99.90
25440;DHT22;13365;52.208;5.488;2023-01-31T09:27:37;10.50;99.90
25440;DHT22;13365;52.208;5.488;2023-01-31T09:30:07;10.60;99.90
25440;DHT22;13365;52.208;5.488;2023-01-31T09:32:33;10.60;99.90
25440;DHT22;13365;52.208;5.488;2023-01-31T09:34:59;10.60;99.90
25440;DHT22;13365;52.208;5.488;2023-01-31T09:37:24;11.00;99.90
25440;DHT22;13365;52.208;5.488;2023-01-31T09:39:50;11.00;99.90
25440;DHT22;13365;52.208;5.488;2023-01-31T09:42:26;11.00;99.90
25440;DHT22;13365;52.208;5.488;2023-01-31T09:45:12;11.10;99.90
25440;DHT22;13365;52.208;5.488;2023-01-31T09:47:47;11.20;99.90
25440;DHT22;13365;52.208;5.488;2023-01-31T09:50:21;11.20;99.90
25440;DHT22;13365;52.208;5.488;2023-01-31T09:52:48;11.40;99.90
25440;DHT22;13365;52.208;5.488;2023-01-31T09:55:16;11.30;99.90
25440;DHT22;13365;52.208;5.488;2023-01-31T09:57:59;11.10;99.90
25440;DHT22;13365;52.208;5.488;2023-01-31T10:00:31;10.80;99.90
25440;DHT22;13365;52.208;5.488;2023-01-31T10:10:59;10.60;99.90
25440;DHT22;13365;52.208;5.488;2023-01-31T10:16:36;10.80;99.90
25440;DHT22;13365;52.208;5.488;2023-01-31T10:19:12;11.00;99.90
25440;DHT22;13365;52.208;5.488;2023-01-31T10:21:42;11.20;99.90
25440;DHT22;13365;52.208;5.488;2023-01-31T10:24:33;11.30;99.90
25440;DHT22;13365;52.208;5.488;2023-01-31T10:27:11;11.80;99.90
25440;DHT22;13365;52.208;5.488;2023-01-31T10:29:44;11.70;99.90
25440;DHT22;13365;52.208;5.488;2023-01-31T10:32:20;11.40;99.90
25440;DHT22;13365;52.208;5.488;2023-01-31T10:34:58;11.40;99.90
25440;DHT22;13365;52.208;5.488;2023-01-31T10:37:35;11.30;99.90
25440;DHT22;13365;52.208;5.488;2023-01-31T10:40:08;11.30;99.90
25440;DHT22;13365;52.208;5.488;2023-01-31T10:42:38;11.30;99.90
25440;DHT22;13365;52.208;5.488;2023-01-31T10:48:03;11.40;99.90
25440;DHT22;13365;52.208;5.488;2023-01-31T10:56:32;10.90;99.90
25440;DHT22;13365;52.208;5.488;2023-01-31T10:59:01;10.90;99.90
25440;DHT22;13365;52.208;5.488;2023-01-31T11:01:28;10.80;99.90
25440;DHT22;13365;52.208;5.488;2023-01-31T11:03:54;10.80;99.90
25440;DHT22;13365;52.208;5.488;2023-01-31T11:06:22;10.80;99.90
25440;DHT22;13365;52.208;5.488;2023-01-31T11:08:54;10.70;99.90
25440;DHT22;13365;52.208;5.488;2023-01-31T11:11:23;10.60;99.90
25440;DHT22;13365;52.208;5.488;2023-01-31T11:13:59;10.50;99.90
25440;DHT22;13365;52.208;5.488;2023-01-31T11:16:27;10.50;99.90
25440;DHT22;13365;52.208;5.488;2023-01-31T11:18:53;10.50;99.90
25440;DHT22;13365;52.208;5.488;2023-01-31T11:21:37;10.40;99.90
25440;DHT22;13365;52.208;5.488;2023-01-31T11:24:15;10.20;99.90
25440;DHT22;13365;52.208;5.488;2023-01-31T11:26:51;10.30;99.90
25440;DHT22;13365;52.208;5.488;2023-01-31T11:29:40;10.30;99.90
25440;DHT22;13365;52.208;5.488;2023-01-31T11:32:18;10.20;99.90
25440;DHT22;13365;52.208;5.488;2023-01-31T11:35:06;10.10;99.90
25440;DHT22;13365;52.208;5.488;2023-01-31T11:37:53;10.20;99.90
25440;DHT22;13365;52.208;5.488;2023-01-31T11:40:20;10.10;99.90
25440;DHT22;13365;52.208;5.488;2023-01-31T11:42:58;10.10;99.90
25440;DHT22;13365;52.208;5.488;2023-01-31T11:45:26;9.90;99.90
25440;DHT22;13365;52.208;5.488;2023-01-31T11:47:55;10.00;99.90
25440;DHT22;13365;52.208;5.488;2023-01-31T11:50:32;9.90;99.90
25440;DHT22;13365;52.208;5.488;2023-01-31T11:53:03;10.10;99.90
25440;DHT22;13365;52.208;5.488;2023-01-31T11:55:42;10.20;99.90
25440;DHT22;13365;52.208;5.488;2023-01-31T11:58:30;10.10;99.90
25440;DHT22;13365;52.208;5.488;2023-01-31T12:01:16;10.10;99.90
25440;DHT22;13365;52.208;5.488;2023-01-31T12:03:57;10.20;99.90
25440;DHT22;13365;52.208;5.488;2023-01-31T12:06:36;10.30;99.90
25440;DHT22;13365;52.208;5.488;2023-01-31T12:09:05;10.20;99.90
25440;DHT22;13365;52.208;5.488;2023-01-31T12:11:33;10.10;99.90
25440;DHT22;13365;52.208;5.488;2023-01-31T12:14:08;10.10;99.90
25440;DHT22;13365;52.208;5.488;2023-01-31T12:16:36;10.30;99.90
25440;DHT22;13365;52.208;5.488;2023-01-31T12:26:53;10.70;99.90
25440;DHT22;13365;52.208;5.488;2023-01-31T12:39:57;10.90;99.90
25440;DHT22;13365;52.208;5.488;2023-01-31T12:51:38;11.00;99.90
25440;DHT22;13365;52.208;5.488;2023-01-31T12:57:00;11.30;99.90
25440;DHT22;13365;52.208;5.488;2023-01-31T13:02:44;11.60;99.90
25440;DHT22;13365;52.208;5.488;2023-01-31T13:07:58;11.70;99.90
25440;DHT22;13365;52.208;5.488;2023-01-31T13:10:39;11.80;99.90
25440;DHT22;13365;52.208;5.488;2023-01-31T13:13:24;11.60;99.90
25440;DHT22;13365;52.208;5.488;2023-01-31T13:15:54;11.70;99.90
25440;DHT22;13365;52.208;5.488;2023-01-31T13:18:23;11.70;99.90
25440;DHT22;13365;52.208;5.488;2023-01-31T13:20:58;11.70;99.90
25440;DHT22;13365;52.208;5.488;2023-01-31T13:23:31;11.80;99.90
25440;DHT22;13365;52.208;5.488;2023-01-31T13:26:11;11.60;99.90
25440;DHT22;13365;52.208;5.488;2023-01-31T13:28:59;11.60;99.90
25440;DHT22;13365;52.208;5.488;2023-01-31T13:31:33;11.50;99.90
25440;DHT22;13365;52.208;5.488;2023-01-31T13:34:30;11.50;99.90
25440;DHT22;13365;52.208;5.488;2023-01-31T13:37:06;11.50;99.90
25440;DHT22;13365;52.208;5.488;2023-01-31T13:39:42;11.70;99.90
25440;DHT22;13365;52.208;5.488;2023-01-31T13:42:14;11.60;99.90
25440;DHT22;13365;52.208;5.488;2023-01-31T13:44:40;11.60;99.90
25440;DHT22;13365;52.208;5.488;2023-01-31T13:47:28;11.70;99.90
25440;DHT22;13365;52.208;5.488;2023-01-31T13:50:08;11.80;99.90
25440;DHT22;13365;52.208;5.488;2023-01-31T13:52:49;11.80;99.90
25440;DHT22;13365;52.208;5.488;2023-01-31T13:55:21;11.90;99.90
25440;DHT22;13365;52.208;5.488;2023-01-31T13:57:57;11.90;99.90
25440;DHT22;13365;52.208;5.488;2023-01-31T14:00:39;11.80;99.90
25440;DHT22;13365;52.208;5.488;2023-01-31T14:11:00;11.60;99.90
25440;DHT22;13365;52.208;5.488;2023-01-31T14:15:57;11.60;99.90
25440;DHT22;13365;52.208;5.488;2023-01-31T14:23:49;11.70;99.90
25440;DHT22;13365;52.208;5.488;2023-01-31T14:26:49;11.90;99.90
25440;DHT22;13365;52.208;5.488;2023-01-31T14:29:24;11.80;99.90
25440;DHT22;13365;52.208;5.488;2023-01-31T14:31:52;11.70;99.90
25440;DHT22;13365;52.208;5.488;2023-01-31T14:34:28;11.80;99.90
25440;DHT22;13365;52.208;5.488;2023-01-31T14:37:03;11.90;99.90
25440;DHT22;13365;52.208;5.488;2023-01-31T14:39:36;12.00;99.90
25440;DHT22;13365;52.208;5.488;2023-01-31T14:45:18;12.00;99.90
25440;DHT22;13365;52.208;5.488;2023-01-31T14:50:40;11.80;99.90
25440;DHT22;13365;52.208;5.488;2023-01-31T14:53:29;12.00;99.90
25440;DHT22;13365;52.208;5.488;2023-01-31T14:56:19;11.90;99.90
25440;DHT22;13365;52.208;5.488;2023-01-31T14:58:49;11.80;99.90
25440;DHT22;13365;52.208;5.488;2023-01-31T15:01:17;12.00;99.90
25440;DHT22;13365;52.208;5.488;2023-01-31T15:03:58;12.10;99.90
25440;DHT22;13365;52.208;5.488;2023-01-31T15:06:27;12.00;99.90
25440;DHT22;13365;52.208;5.488;2023-01-31T15:11:42;11.80;99.90
25440;DHT22;13365;52.208;5.488;2023-01-31T15:14:37;11.90;99.90
25440;DHT22;13365;52.208;5.488;2023-01-31T15:17:15;11.80;99.90
25440;DHT22;13365;52.208;5.488;2023-01-31T15:19:45;11.80;99.90
25440;DHT22;13365;52.208;5.488;2023-01-31T15:22:12;11.80;99.90
25440;DHT22;13365;52.208;5.488;2023-01-31T15:24:44;11.80;99.90
25440;DHT22;13365;52.208;5.488;2023-01-31T15:27:22;11.70;99.90
25440;DHT22;13365;52.208;5.488;2023-01-31T15:30:06;12.10;99.90
25440;DHT22;13365;52.208;5.488;2023-01-31T15:32:43;12.00;99.90
25440;DHT22;13365;52.208;5.488;2023-01-31T15:35:34;12.10;99.90
25440;DHT22;13365;52.208;5.488;2023-01-31T15:38:03;12.10;99.90
25440;DHT22;13365;52.208;5.488;2023-01-31T15:40:30;12.00;99.90
25440;DHT22;13365;52.208;5.488;2023-01-31T15:43:15;11.80;99.90
25440;DHT22;13365;52.208;5.488;2023-01-31T15:45:41;12.10;99.90
25440;DHT22;13365;52.208;5.488;2023-01-31T15:48:11;11.80;99.90
25440;DHT22;13365;52.208;5.488;2023-01-31T15:53:16;11.60;99.90
25440;DHT22;13365;52.208;5.488;2023-01-31T15:55:44;11.50;99.90
25440;DHT22;13365;52.208;5.488;2023-01-31T15:58:22;11.50;99.90
25440;DHT22;13365;52.208;5.488;2023-01-31T16:00:58;11.70;99.90
25440;DHT22;13365;52.208;5.488;2023-01-31T16:03:33;11.60;99.90
25440;DHT22;13365;52.208;5.488;2023-01-31T16:06:00;11.50;99.90
25440;DHT22;13365;52.208;5.488;2023-01-31T16:10:53;11.70;99.90
25440;DHT22;13365;52.208;5.488;2023-01-31T16:13:20;11.60;99.90
25440;DHT22;13365;52.208;5.488;2023-01-31T16:15:46;11.60;99.90
25440;DHT22;13365;52.208;5.488;2023-01-31T16:18:12;11.60;99.90
25440;DHT22;13365;52.208;5.488;2023-01-31T16:20:39;11.30;99.90
25440;DHT22;13365;52.208;5.488;2023-01-31T16:25:52;11.30;99.90
25440;DHT22;13365;52.208;5.488;2023-01-31T16:28:18;11.50;99.90
25440;DHT22;13365;52.208;5.488;2023-01-31T16:30:44;11.60;99.90
25440;DHT22;13365;52.208;5.488;2023-01-31T16:33:20;11.50;99.90
25440;DHT22;13365;52.208;5.488;2023-01-31T16:36:08;11.50;99.90
25440;DHT22;13365;52.208;5.488;2023-01-31T16:38:34;11.50;99.90
25440;DHT22;13365;52.208;5.488;2023-01-31T16:41:02;11.40;99.90
25440;DHT22;13365;52.208;5.488;2023-01-31T16:43:33;11.30;99.90
25440;DHT22;13365;52.208;5.488;2023-01-31T16:46:04;11.20;99.90
25440;DHT22;13365;52.208;5.488;2023-01-31T16:50:58;11.10;99.90
25440;DHT22;13365;52.208;5.488;2023-01-31T16:53:32;11.20;99.90
25440;DHT22;13365;52.208;5.488;2023-01-31T16:58:48;11.00;99.90
25440;DHT22;13365;52.208;5.488;2023-01-31T17:01:28;10.90;99.90
25440;DHT22;13365;52.208;5.488;2023-01-31T17:06:26;10.70;99.90
25440;DHT22;13365;52.208;5.488;2023-01-31T17:08:52;10.70;99.90
25440;DHT22;13365;52.208;5.488;2023-01-31T17:11:17;10.80;99.70
25440;DHT22;13365;52.208;5.488;2023-01-31T17:13:43;10.70;99.50
25440;DHT22;13365;52.208;5.488;2023-01-31T17:16:17;10.70;99.10
25440;DHT22;13365;52.208;5.488;2023-01-31T17:18:53;10.80;99.00
25440;DHT22;13365;52.208;5.488;2023-01-31T17:21:23;10.70;98.50
25440;DHT22;13365;52.208;5.488;2023-01-31T17:23:50;10.70;98.40
25440;DHT22;13365;52.208;5.488;2023-01-31T17:26:21;10.70;98.10
25440;DHT22;13365;52.208;5.488;2023-01-31T17:28:47;10.80;97.90
25440;DHT22;13365;52.208;5.488;2023-01-31T17:31:22;10.60;97.60
25440;DHT22;13365;52.208;5.488;2023-01-31T17:33:49;10.50;97.70
25440;DHT22;13365;52.208;5.488;2023-01-31T17:36:15;10.40;97.70
25440;DHT22;13365;52.208;5.488;2023-01-31T17:38:41;10.60;97.50
25440;DHT22;13365;52.208;5.488;2023-01-31T17:41:13;10.50;97.10
25440;DHT22;13365;52.208;5.488;2023-01-31T17:43:39;10.40;97.00
25440;DHT22;13365;52.208;5.488;2023-01-31T17:46:05;10.30;97.30
25440;DHT22;13365;52.208;5.488;2023-01-31T17:48:30;10.30;97.40
25440;DHT22;13365;52.208;5.488;2023-01-31T17:50:56;10.40;97.00
25440;DHT22;13365;52.208;5.488;2023-01-31T17:53:22;10.40;96.80
25440;DHT22;13365;52.208;5.488;2023-01-31T17:55:47;10.30;96.80
25440;DHT22;13365;52.208;5.488;2023-01-31T17:58:14;10.30;96.80
25440;DHT22;13365;52.208;5.488;2023-01-31T18:00:40;10.40;96.70
25440;DHT22;13365;52.208;5.488;2023-01-31T18:03:05;10.20;96.90